Terminal Aerodrome Forecast
Issued by NWS Memphis, TN

Home | Current Version | Previous Version | Text Only | Print | Product List | Glossary On
Versions: 1 2 3 4 5 6 7 8 9 10 11 12
566
FTUS44 KMEG 282334
TAFMKL
TAF
KMKL 282334Z 2900/2924 18008KT P6SM SCT030
     FM290100 18004KT P6SM SKC
     FM291500 18010KT P6SM BKN035
     FM292000 18010G15KT P6SM BKN050 BKN100=

USA.gov is the U.S. government's official web portal to all federal, state and local government web resources and services.